Lee, Massachusetts
Current Conditions -  °F | °C
As of 2:54 AM on Saturday 20 Dec 2014 (Local Time) from KPSF Reporting Station
Clear Clear  
Wind Chill: 13°   Ceiling: Unl
Heat Index: 20°   Visibility: 10mi
Dew Point: 15°   Wind: 5mph
Humidity: 81%   Direction: 340°NNW
Pressure: 30.14"   Gusts: NA
Location:  42.3°N, 73.25°W
Report Text: KPSF 200754Z AUTO 34004KT 10SM CLR M07/M09 A3014 RMK AO2 SLP224 T10671094
Loading
Personal Weather Stations






























Interactive Weather Map New forecast layout! Learn more

10-Day Weather Forecast

Advertisements
Track Severe Weather on mobile